sensor_id;sensor_type;location;lat;lon;timestamp;pressure;altitude;pressure_sealevel;temperature;humidity
77288;BME280;66345;42.694;23.346;2023-07-31T00:00:52;95147.13;;;21.55;67.18
77288;BME280;66345;42.694;23.346;2023-07-31T00:03:18;95155.47;;;21.48;66.77
77288;BME280;66345;42.694;23.346;2023-07-31T00:05:43;95152.25;;;21.56;67.95
77288;BME280;66345;42.694;23.346;2023-07-31T00:08:09;95145.47;;;21.49;67.53
77288;BME280;66345;42.694;23.346;2023-07-31T00:10:35;95151.94;;;21.53;66.69
77288;BME280;66345;42.694;23.346;2023-07-31T00:13:00;95153.59;;;21.59;67.31
77288;BME280;66345;42.694;23.346;2023-07-31T00:15:26;95165.19;;;21.59;67.34
77288;BME280;66345;42.694;23.346;2023-07-31T00:17:51;95156.28;;;21.54;66.18
77288;BME280;66345;42.694;23.346;2023-07-31T00:20:17;95157.16;;;21.70;66.07
77288;BME280;66345;42.694;23.346;2023-07-31T00:22:42;95146.03;;;21.61;65.34
77288;BME280;66345;42.694;23.346;2023-07-31T00:25:08;95146.03;;;21.61;66.45
77288;BME280;66345;42.694;23.346;2023-07-31T00:27:33;95142.25;;;21.57;66.47
77288;BME280;66345;42.694;23.346;2023-07-31T00:29:59;95140.09;;;21.64;66.46
77288;BME280;66345;42.694;23.346;2023-07-31T00:32:24;95129.81;;;21.61;66.89
77288;BME280;66345;42.694;23.346;2023-07-31T00:34:50;95121.22;;;21.74;66.34
77288;BME280;66345;42.694;23.346;2023-07-31T00:37:15;95120.09;;;21.60;66.57
77288;BME280;66345;42.694;23.346;2023-07-31T00:39:41;95114.97;;;21.58;67.20
77288;BME280;66345;42.694;23.346;2023-07-31T00:42:06;95114.09;;;21.38;67.94
77288;BME280;66345;42.694;23.346;2023-07-31T00:44:32;95114.66;;;21.35;68.84
77288;BME280;66345;42.694;23.346;2023-07-31T00:46:58;95123.50;;;21.25;68.63
77288;BME280;66345;42.694;23.346;2023-07-31T00:49:24;95121.31;;;21.17;69.10
77288;BME280;66345;42.694;23.346;2023-07-31T00:51:51;95129.63;;;21.05;69.58
77288;BME280;66345;42.694;23.346;2023-07-31T00:54:16;95122.91;;;21.13;70.11
77288;BME280;66345;42.694;23.346;2023-07-31T00:56:44;95126.41;;;21.13;70.36
77288;BME280;66345;42.694;23.346;2023-07-31T00:59:10;95120.97;;;21.08;70.46
77288;BME280;66345;42.694;23.346;2023-07-31T01:01:36;95114.78;;;21.08;70.59
77288;BME280;66345;42.694;23.346;2023-07-31T01:04:01;95106.94;;;21.06;70.26
77288;BME280;66345;42.694;23.346;2023-07-31T01:06:52;95110.44;;;21.06;71.20
77288;BME280;66345;42.694;23.346;2023-07-31T01:09:47;95109.59;;;20.96;71.60
77288;BME280;66345;42.694;23.346;2023-07-31T01:12:16;95110.69;;;21.00;71.61
77288;BME280;66345;42.694;23.346;2023-07-31T01:15:05;95124.13;;;20.90;72.02
77288;BME280;66345;42.694;23.346;2023-07-31T01:17:31;95106.69;;;21.02;71.67
77288;BME280;66345;42.694;23.346;2023-07-31T01:20:01;95104.25;;;21.01;72.29
77288;BME280;66345;42.694;23.346;2023-07-31T01:28:08;95101.53;;;20.96;71.64
77288;BME280;66345;42.694;23.346;2023-07-31T01:30:41;95099.66;;;21.01;71.92
77288;BME280;66345;42.694;23.346;2023-07-31T01:33:09;95095.28;;;20.90;72.22
77288;BME280;66345;42.694;23.346;2023-07-31T01:35:36;95097.72;;;20.87;72.83
77288;BME280;66345;42.694;23.346;2023-07-31T01:38:03;95094.44;;;20.85;72.73
77288;BME280;66345;42.694;23.346;2023-07-31T01:40:29;95091.16;;;20.72;73.50
77288;BME280;66345;42.694;23.346;2023-07-31T01:42:55;95095.50;;;20.78;73.40
77288;BME280;66345;42.694;23.346;2023-07-31T01:45:20;95094.44;;;20.80;72.90
77288;BME280;66345;42.694;23.346;2023-07-31T01:47:46;95093.28;;;20.65;73.44
77288;BME280;66345;42.694;23.346;2023-07-31T01:50:12;95090.34;;;20.72;73.14
77288;BME280;66345;42.694;23.346;2023-07-31T01:52:37;95095.97;;;20.65;73.55
77288;BME280;66345;42.694;23.346;2023-07-31T01:55:03;95100.28;;;20.66;74.16
77288;BME280;66345;42.694;23.346;2023-07-31T01:57:29;95100.88;;;20.73;73.63
77288;BME280;66345;42.694;23.346;2023-07-31T01:59:54;95104.09;;;20.75;73.78
77288;BME280;66345;42.694;23.346;2023-07-31T02:02:20;95108.34;;;20.61;73.83
77288;BME280;66345;42.694;23.346;2023-07-31T02:04:46;95103.97;;;20.50;74.82
77288;BME280;66345;42.694;23.346;2023-07-31T02:07:12;95108.28;;;20.51;75.08
77288;BME280;66345;42.694;23.346;2023-07-31T02:09:37;95102.53;;;20.42;75.47
77288;BME280;66345;42.694;23.346;2023-07-31T02:12:03;95099.63;;;20.44;75.53
77288;BME280;66345;42.694;23.346;2023-07-31T02:14:28;95115.78;;;20.44;75.56
77288;BME280;66345;42.694;23.346;2023-07-31T02:16:54;95113.63;;;20.46;76.04
77288;BME280;66345;42.694;23.346;2023-07-31T02:19:19;95117.09;;;20.41;75.60
77288;BME280;66345;42.694;23.346;2023-07-31T02:21:45;95113.44;;;20.20;76.87
77288;BME280;66345;42.694;23.346;2023-07-31T02:24:10;95112.50;;;20.42;76.12
77288;BME280;66345;42.694;23.346;2023-07-31T02:26:36;95112.06;;;20.50;75.66
77288;BME280;66345;42.694;23.346;2023-07-31T02:29:01;95117.59;;;20.38;76.62
77288;BME280;66345;42.694;23.346;2023-07-31T02:31:27;95109.50;;;20.38;76.47
77288;BME280;66345;42.694;23.346;2023-07-31T02:33:52;95111.44;;;20.43;76.47
77288;BME280;66345;42.694;23.346;2023-07-31T02:36:18;95116.28;;;20.41;76.08
77288;BME280;66345;42.694;23.346;2023-07-31T02:38:44;95111.13;;;20.39;76.48
77288;BME280;66345;42.694;23.346;2023-07-31T02:41:09;95112.34;;;20.54;76.00
77288;BME280;66345;42.694;23.346;2023-07-31T02:43:35;95108.81;;;20.53;75.67
77288;BME280;66345;42.694;23.346;2023-07-31T02:46:00;95110.31;;;20.71;75.70
77288;BME280;66345;42.694;23.346;2023-07-31T02:48:26;95126.22;;;20.77;75.46
77288;BME280;66345;42.694;23.346;2023-07-31T02:50:51;95120.28;;;20.75;74.98
77288;BME280;66345;42.694;23.346;2023-07-31T02:53:17;95130.31;;;20.80;75.03
77288;BME280;66345;42.694;23.346;2023-07-31T02:55:42;95125.22;;;20.89;74.46
77288;BME280;66345;42.694;23.346;2023-07-31T02:58:07;95134.34;;;20.83;74.56
77288;BME280;66345;42.694;23.346;2023-07-31T03:00:33;95139.72;;;20.77;74.69
77288;BME280;66345;42.694;23.346;2023-07-31T03:02:58;95141.66;;;20.87;74.31
77288;BME280;66345;42.694;23.346;2023-07-31T03:05:24;95134.88;;;20.80;74.78
77288;BME280;66345;42.694;23.346;2023-07-31T03:07:49;95146.25;;;20.87;74.53
77288;BME280;66345;42.694;23.346;2023-07-31T03:10:15;95145.50;;;20.96;73.89
77288;BME280;66345;42.694;23.346;2023-07-31T03:12:41;95147.88;;;20.88;74.02
77288;BME280;66345;42.694;23.346;2023-07-31T03:15:07;95147.91;;;20.98;73.90
77288;BME280;66345;42.694;23.346;2023-07-31T03:17:32;95144.72;;;21.06;73.71
77288;BME280;66345;42.694;23.346;2023-07-31T03:19:58;95147.19;;;21.13;73.02
77288;BME280;66345;42.694;23.346;2023-07-31T03:22:23;95147.72;;;21.10;73.50
77288;BME280;66345;42.694;23.346;2023-07-31T03:24:49;95142.50;;;20.93;73.78
77288;BME280;66345;42.694;23.346;2023-07-31T03:27:14;95148.72;;;20.98;73.71
77288;BME280;66345;42.694;23.346;2023-07-31T03:29:40;95142.53;;;20.98;73.82
77288;BME280;66345;42.694;23.346;2023-07-31T03:32:05;95146.31;;;20.97;73.92
77288;BME280;66345;42.694;23.346;2023-07-31T03:34:31;95148.47;;;21.00;73.90
77288;BME280;66345;42.694;23.346;2023-07-31T03:36:58;95153.38;;;21.13;73.63
77288;BME280;66345;42.694;23.346;2023-07-31T03:39:23;95151.81;;;21.17;73.28
77288;BME280;66345;42.694;23.346;2023-07-31T03:41:48;95150.66;;;21.03;73.38
77288;BME280;66345;42.694;23.346;2023-07-31T03:44:14;95157.94;;;21.08;73.59
77288;BME280;66345;42.694;23.346;2023-07-31T03:46:39;95156.13;;;21.18;72.93
77288;BME280;66345;42.694;23.346;2023-07-31T03:49:05;95160.94;;;21.11;73.08
77288;BME280;66345;42.694;23.346;2023-07-31T03:51:30;95164.50;;;21.17;72.92
77288;BME280;66345;42.694;23.346;2023-07-31T03:53:56;95160.22;;;21.31;72.10
77288;BME280;66345;42.694;23.346;2023-07-31T03:56:21;95159.69;;;21.29;71.84
77288;BME280;66345;42.694;23.346;2023-07-31T03:58:47;95162.44;;;21.44;71.59
77288;BME280;66345;42.694;23.346;2023-07-31T04:01:13;95172.94;;;21.36;71.08
77288;BME280;66345;42.694;23.346;2023-07-31T04:03:38;95171.56;;;21.28;71.41
77288;BME280;66345;42.694;23.346;2023-07-31T04:06:04;95167.47;;;21.20;72.63
77288;BME280;66345;42.694;23.346;2023-07-31T04:08:29;95172.38;;;21.28;71.47
77288;BME280;66345;42.694;23.346;2023-07-31T04:10:55;95176.44;;;21.31;71.89
77288;BME280;66345;42.694;23.346;2023-07-31T04:13:22;95169.09;;;21.26;72.00
77288;BME280;66345;42.694;23.346;2023-07-31T04:15:49;95180.78;;;21.32;71.84
77288;BME280;66345;42.694;23.346;2023-07-31T04:18:15;95181.84;;;21.36;71.41
77288;BME280;66345;42.694;23.346;2023-07-31T04:20:40;95184.06;;;21.44;71.27
77288;BME280;66345;42.694;23.346;2023-07-31T04:23:06;95182.16;;;21.40;71.09
77288;BME280;66345;42.694;23.346;2023-07-31T04:25:31;95183.28;;;21.49;71.17
77288;BME280;66345;42.694;23.346;2023-07-31T04:27:57;95182.19;;;21.50;70.79
77288;BME280;66345;42.694;23.346;2023-07-31T04:30:22;95186.50;;;21.51;70.63
77288;BME280;66345;42.694;23.346;2023-07-31T04:32:49;95184.91;;;21.60;70.54
77288;BME280;66345;42.694;23.346;2023-07-31T04:35:14;95195.97;;;21.53;70.27
77288;BME280;66345;42.694;23.346;2023-07-31T04:37:40;95194.88;;;21.49;70.17
77288;BME280;66345;42.694;23.346;2023-07-31T04:40:07;95187.34;;;21.56;69.87
77288;BME280;66345;42.694;23.346;2023-07-31T04:42:33;95195.78;;;21.80;69.15
77288;BME280;66345;42.694;23.346;2023-07-31T04:44:59;95185.28;;;21.94;68.81
77288;BME280;66345;42.694;23.346;2023-07-31T04:47:25;95197.66;;;21.70;68.93
77288;BME280;66345;42.694;23.346;2023-07-31T04:49:50;95195.75;;;21.75;68.99
77288;BME280;66345;42.694;23.346;2023-07-31T04:52:16;95192.28;;;21.80;68.54
77288;BME280;66345;42.694;23.346;2023-07-31T04:54:41;95193.63;;;21.82;68.43
77288;BME280;66345;42.694;23.346;2023-07-31T04:57:07;95182.38;;;22.21;66.71
77288;BME280;66345;42.694;23.346;2023-07-31T04:59:32;95193.47;;;22.35;66.01
77288;BME280;66345;42.694;23.346;2023-07-31T05:01:57;95187.50;;;22.58;65.50
77288;BME280;66345;42.694;23.346;2023-07-31T05:04:23;95177.25;;;22.55;65.18
77288;BME280;66345;42.694;23.346;2023-07-31T05:06:48;95181.31;;;22.63;64.58
77288;BME280;66345;42.694;23.346;2023-07-31T05:09:14;95188.00;;;23.16;63.66
77288;BME280;66345;42.694;23.346;2023-07-31T05:11:39;95189.03;;;23.31;62.73
77288;BME280;66345;42.694;23.346;2023-07-31T05:14:08;95187.47;;;23.09;63.02
77288;BME280;66345;42.694;23.346;2023-07-31T05:16:33;95185.53;;;23.35;62.11
77288;BME280;66345;42.694;23.346;2023-07-31T05:18:59;95189.50;;;23.58;61.62
77288;BME280;66345;42.694;23.346;2023-07-31T05:21:26;95176.47;;;24.09;60.12
77288;BME280;66345;42.694;23.346;2023-07-31T05:23:52;95178.53;;;23.89;60.30
77288;BME280;66345;42.694;23.346;2023-07-31T05:26:18;95174.00;;;24.57;58.26
77288;BME280;66345;42.694;23.346;2023-07-31T05:28:43;95172.91;;;25.16;56.11
77288;BME280;66345;42.694;23.346;2023-07-31T05:31:09;95175.38;;;26.60;52.39
77288;BME280;66345;42.694;23.346;2023-07-31T05:33:34;95180.94;;;26.12;52.71
77288;BME280;66345;42.694;23.346;2023-07-31T05:36:00;95176.41;;;27.24;49.79
77288;BME280;66345;42.694;23.346;2023-07-31T05:38:31;95166.44;;;27.33;48.91
77288;BME280;66345;42.694;23.346;2023-07-31T05:40:56;95165.63;;;27.47;48.70
77288;BME280;66345;42.694;23.346;2023-07-31T05:43:22;95178.75;;;26.85;50.15
77288;BME280;66345;42.694;23.346;2023-07-31T05:45:47;95175.09;;;26.75;50.52
77288;BME280;66345;42.694;23.346;2023-07-31T05:48:13;95191.84;;;25.93;52.33
77288;BME280;66345;42.694;23.346;2023-07-31T05:50:43;95183.59;;;25.80;52.75
77288;BME280;66345;42.694;23.346;2023-07-31T05:53:11;95182.34;;;24.66;54.85
77288;BME280;66345;42.694;23.346;2023-07-31T05:55:36;95181.91;;;23.60;57.99
77288;BME280;66345;42.694;23.346;2023-07-31T05:58:04;95182.47;;;23.52;58.09
77288;BME280;66345;42.694;23.346;2023-07-31T06:00:30;95187.16;;;23.31;58.77
77288;BME280;66345;42.694;23.346;2023-07-31T06:02:57;95198.44;;;23.48;58.37
77288;BME280;66345;42.694;23.346;2023-07-31T06:05:23;95197.22;;;23.15;59.06
77288;BME280;66345;42.694;23.346;2023-07-31T06:07:57;95204.50;;;23.20;58.80
77288;BME280;66345;42.694;23.346;2023-07-31T06:10:23;95196.53;;;24.14;56.73
77288;BME280;66345;42.694;23.346;2023-07-31T06:15:57;95190.88;;;28.43;44.78
77288;BME280;66345;42.694;23.346;2023-07-31T06:18:24;95200.81;;;29.46;41.93
77288;BME280;66345;42.694;23.346;2023-07-31T06:20:49;95198.34;;;29.59;40.92
77288;BME280;66345;42.694;23.346;2023-07-31T06:23:19;95199.16;;;30.25;39.26
77288;BME280;66345;42.694;23.346;2023-07-31T06:25:45;95194.03;;;30.66;37.67
77288;BME280;66345;42.694;23.346;2023-07-31T06:28:11;95200.53;;;29.17;40.64
77288;BME280;66345;42.694;23.346;2023-07-31T06:30:36;95198.25;;;29.81;39.33
77288;BME280;66345;42.694;23.346;2023-07-31T06:33:02;95202.16;;;29.97;38.77
77288;BME280;66345;42.694;23.346;2023-07-31T06:35:28;95187.72;;;29.26;40.61
77288;BME280;66345;42.694;23.346;2023-07-31T06:37:53;95195.41;;;27.57;43.39
77288;BME280;66345;42.694;23.346;2023-07-31T06:40:19;95195.22;;;26.61;46.16
77288;BME280;66345;42.694;23.346;2023-07-31T06:42:44;95198.00;;;26.37;47.64
77288;BME280;66345;42.694;23.346;2023-07-31T06:45:10;95190.47;;;28.36;42.24
77288;BME280;66345;42.694;23.346;2023-07-31T06:47:35;95185.91;;;28.45;42.41
77288;BME280;66345;42.694;23.346;2023-07-31T06:50:01;95184.56;;;28.57;42.48
77288;BME280;66345;42.694;23.346;2023-07-31T06:52:26;95190.72;;;28.48;42.11
77288;BME280;66345;42.694;23.346;2023-07-31T06:55:17;95194.91;;;28.68;41.63
77288;BME280;66345;42.694;23.346;2023-07-31T06:57:47;95204.16;;;29.66;38.63
77288;BME280;66345;42.694;23.346;2023-07-31T07:00:16;95199.63;;;31.05;36.37
77288;BME280;66345;42.694;23.346;2023-07-31T07:02:41;95192.69;;;31.07;35.65
77288;BME280;66345;42.694;23.346;2023-07-31T07:05:10;95186.78;;;32.41;33.94
77288;BME280;66345;42.694;23.346;2023-07-31T07:07:36;95181.78;;;34.80;29.78
77288;BME280;66345;42.694;23.346;2023-07-31T07:10:01;95190.50;;;34.54;29.32
77288;BME280;66345;42.694;23.346;2023-07-31T07:12:29;95187.75;;;32.99;31.76
77288;BME280;66345;42.694;23.346;2023-07-31T07:14:55;95185.63;;;32.63;32.53
77288;BME280;66345;42.694;23.346;2023-07-31T07:17:22;95182.84;;;33.04;31.79
77288;BME280;66345;42.694;23.346;2023-07-31T07:19:48;95185.16;;;33.15;31.28
77288;BME280;66345;42.694;23.346;2023-07-31T07:22:14;95186.59;;;33.00;31.47
77288;BME280;66345;42.694;23.346;2023-07-31T07:24:39;95200.31;;;32.88;31.28
77288;BME280;66345;42.694;23.346;2023-07-31T07:27:05;95192.25;;;33.16;31.41
77288;BME280;66345;42.694;23.346;2023-07-31T07:29:31;95185.25;;;33.06;31.44
77288;BME280;66345;42.694;23.346;2023-07-31T07:31:58;95183.00;;;33.32;30.84
77288;BME280;66345;42.694;23.346;2023-07-31T07:34:26;95179.41;;;32.33;32.85
77288;BME280;66345;42.694;23.346;2023-07-31T07:36:51;95192.88;;;31.02;35.16
77288;BME280;66345;42.694;23.346;2023-07-31T07:39:17;95192.06;;;31.02;35.19
77288;BME280;66345;42.694;23.346;2023-07-31T07:41:42;95179.50;;;32.15;33.67
77288;BME280;66345;42.694;23.346;2023-07-31T07:44:08;95182.69;;;32.89;31.93
77288;BME280;66345;42.694;23.346;2023-07-31T07:46:36;95176.31;;;35.24;28.17
77288;BME280;66345;42.694;23.346;2023-07-31T07:49:02;95186.78;;;35.02;28.63
77288;BME280;66345;42.694;23.346;2023-07-31T07:51:27;95185.72;;;35.51;28.10
77288;BME280;66345;42.694;23.346;2023-07-31T07:53:55;95196.75;;;33.65;29.73
77288;BME280;66345;42.694;23.346;2023-07-31T07:56:21;95190.31;;;33.16;30.44
77288;BME280;66345;42.694;23.346;2023-07-31T07:58:49;95203.22;;;30.79;34.54
77288;BME280;66345;42.694;23.346;2023-07-31T08:01:15;95207.72;;;30.41;35.79
77288;BME280;66345;42.694;23.346;2023-07-31T08:03:40;95200.25;;;32.04;32.82
77288;BME280;66345;42.694;23.346;2023-07-31T08:06:09;95200.22;;;33.29;31.00
77288;BME280;66345;42.694;23.346;2023-07-31T08:08:35;95192.72;;;33.51;29.85
77288;BME280;66345;42.694;23.346;2023-07-31T08:11:01;95195.09;;;32.53;31.41
77288;BME280;66345;42.694;23.346;2023-07-31T08:13:26;95196.75;;;31.95;32.78
77288;BME280;66345;42.694;23.346;2023-07-31T08:15:52;95211.75;;;31.59;33.75
77288;BME280;66345;42.694;23.346;2023-07-31T08:18:17;95207.56;;;30.63;34.97
77288;BME280;66345;42.694;23.346;2023-07-31T08:20:44;95197.91;;;32.44;31.53
77288;BME280;66345;42.694;23.346;2023-07-31T08:23:10;95205.13;;;34.42;28.38
77288;BME280;66345;42.694;23.346;2023-07-31T08:25:41;95202.00;;;36.03;25.61
77288;BME280;66345;42.694;23.346;2023-07-31T08:28:07;95196.16;;;37.14;24.20
77288;BME280;66345;42.694;23.346;2023-07-31T08:30:33;95188.09;;;36.16;25.48
77288;BME280;66345;42.694;23.346;2023-07-31T08:32:59;95194.00;;;35.82;26.05
77288;BME280;66345;42.694;23.346;2023-07-31T08:35:25;95181.06;;;37.99;23.42
77288;BME280;66345;42.694;23.346;2023-07-31T08:37:53;95187.47;;;37.35;23.55
77288;BME280;66345;42.694;23.346;2023-07-31T08:40:22;95185.59;;;37.19;23.42
77288;BME280;66345;42.694;23.346;2023-07-31T08:42:54;95193.09;;;36.10;24.84
77288;BME280;66345;42.694;23.346;2023-07-31T08:45:29;95187.25;;;36.31;24.79
77288;BME280;66345;42.694;23.346;2023-07-31T08:47:56;95188.06;;;37.70;22.77
77288;BME280;66345;42.694;23.346;2023-07-31T08:50:25;95181.88;;;35.87;24.74
77288;BME280;66345;42.694;23.346;2023-07-31T08:52:52;95178.13;;;34.76;26.12
77288;BME280;66345;42.694;23.346;2023-07-31T08:55:18;95188.25;;;34.19;27.26
77288;BME280;66345;42.694;23.346;2023-07-31T08:57:51;95184.09;;;34.78;26.35
77288;BME280;66345;42.694;23.346;2023-07-31T09:00:20;95181.22;;;35.30;25.49
77288;BME280;66345;42.694;23.346;2023-07-31T09:03:03;95180.72;;;35.72;24.99
77288;BME280;66345;42.694;23.346;2023-07-31T09:05:32;95169.94;;;35.99;24.67
77288;BME280;66345;42.694;23.346;2023-07-31T09:07:58;95181.56;;;37.17;23.46
77288;BME280;66345;42.694;23.346;2023-07-31T09:10:25;95170.41;;;38.54;21.74
77288;BME280;66345;42.694;23.346;2023-07-31T09:12:51;95179.75;;;38.43;21.95
77288;BME280;66345;42.694;23.346;2023-07-31T09:15:17;95177.38;;;38.45;21.83
77288;BME280;66345;42.694;23.346;2023-07-31T09:17:43;95174.19;;;39.77;20.19
77288;BME280;66345;42.694;23.346;2023-07-31T09:20:19;95180.06;;;39.69;20.70
77288;BME280;66345;42.694;23.346;2023-07-31T09:22:47;95166.91;;;38.31;21.74
77288;BME280;66345;42.694;23.346;2023-07-31T09:25:21;95161.22;;;39.51;20.88
77288;BME280;66345;42.694;23.346;2023-07-31T09:27:53;95154.53;;;40.59;19.73
77288;BME280;66345;42.694;23.346;2023-07-31T09:30:21;95160.00;;;41.56;18.10
77288;BME280;66345;42.694;23.346;2023-07-31T09:32:48;95151.25;;;42.22;17.87
77288;BME280;66345;42.694;23.346;2023-07-31T09:35:28;95136.13;;;41.70;18.32
77288;BME280;66345;42.694;23.346;2023-07-31T09:38:11;95144.75;;;41.11;18.79
77288;BME280;66345;42.694;23.346;2023-07-31T09:40:40;95144.34;;;38.06;22.47
77288;BME280;66345;42.694;23.346;2023-07-31T09:43:19;95142.41;;;35.86;25.07
77288;BME280;66345;42.694;23.346;2023-07-31T09:45:45;95151.72;;;34.22;27.12
77288;BME280;66345;42.694;23.346;2023-07-31T09:48:16;95140.53;;;33.91;27.73
77288;BME280;66345;42.694;23.346;2023-07-31T09:50:44;95137.75;;;32.64;29.75
77288;BME280;66345;42.694;23.346;2023-07-31T09:53:10;95137.88;;;36.29;25.44
77288;BME280;66345;42.694;23.346;2023-07-31T09:55:37;95138.16;;;35.57;25.15
77288;BME280;66345;42.694;23.346;2023-07-31T09:58:10;95136.25;;;33.20;27.83
77288;BME280;66345;42.694;23.346;2023-07-31T10:00:37;95138.47;;;33.88;27.79
77288;BME280;66345;42.694;23.346;2023-07-31T10:03:08;95128.56;;;33.26;28.15
77288;BME280;66345;42.694;23.346;2023-07-31T10:05:38;95140.31;;;32.06;30.03
77288;BME280;66345;42.694;23.346;2023-07-31T10:08:04;95137.72;;;31.51;31.19
77288;BME280;66345;42.694;23.346;2023-07-31T10:10:31;95128.69;;;31.80;30.23
77288;BME280;66345;42.694;23.346;2023-07-31T10:12:57;95131.84;;;35.41;25.69
77288;BME280;66345;42.694;23.346;2023-07-31T10:15:24;95129.59;;;35.78;24.20
77288;BME280;66345;42.694;23.346;2023-07-31T10:17:53;95124.91;;;36.14;23.99
77288;BME280;66345;42.694;23.346;2023-07-31T10:20:23;95132.69;;;36.44;23.67
77288;BME280;66345;42.694;23.346;2023-07-31T10:22:56;95119.13;;;38.71;20.85
77288;BME280;66345;42.694;23.346;2023-07-31T10:25:23;95123.88;;;37.88;20.99
77288;BME280;66345;42.694;23.346;2023-07-31T10:27:54;95132.31;;;34.99;24.91
77288;BME280;66345;42.694;23.346;2023-07-31T10:30:27;95126.75;;;34.56;25.60
77288;BME280;66345;42.694;23.346;2023-07-31T10:32:55;95115.19;;;36.78;22.04
77288;BME280;66345;42.694;23.346;2023-07-31T10:35:30;95114.22;;;36.32;23.07
77288;BME280;66345;42.694;23.346;2023-07-31T10:38:09;95105.56;;;35.47;24.04
77288;BME280;66345;42.694;23.346;2023-07-31T10:40:35;95123.06;;;34.24;25.22
77288;BME280;66345;42.694;23.346;2023-07-31T10:43:01;95121.94;;;33.88;25.92
77288;BME280;66345;42.694;23.346;2023-07-31T10:45:42;95115.84;;;33.21;27.80
77288;BME280;66345;42.694;23.346;2023-07-31T10:48:17;95115.69;;;32.39;28.21
77288;BME280;66345;42.694;23.346;2023-07-31T10:50:54;95112.78;;;31.35;29.65
77288;BME280;66345;42.694;23.346;2023-07-31T10:55:51;95110.25;;;30.22;32.08
77288;BME280;66345;42.694;23.346;2023-07-31T10:58:20;95114.44;;;30.20;32.44
77288;BME280;66345;42.694;23.346;2023-07-31T11:00:55;95113.31;;;30.21;32.08
77288;BME280;66345;42.694;23.346;2023-07-31T11:03:43;95112.31;;;29.99;33.11
77288;BME280;66345;42.694;23.346;2023-07-31T11:06:13;95110.03;;;29.75;32.39
77288;BME280;66345;42.694;23.346;2023-07-31T11:08:44;95106.16;;;29.68;32.37
77288;BME280;66345;42.694;23.346;2023-07-31T11:11:12;95088.81;;;30.07;31.73
77288;BME280;66345;42.694;23.346;2023-07-31T11:13:50;95100.28;;;30.00;32.78
77288;BME280;66345;42.694;23.346;2023-07-31T11:16:21;95087.06;;;30.20;31.39
77288;BME280;66345;42.694;23.346;2023-07-31T11:18:47;95087.56;;;30.22;31.84
77288;BME280;66345;42.694;23.346;2023-07-31T11:21:26;95087.25;;;30.32;31.84
77288;BME280;66345;42.694;23.346;2023-07-31T11:24:12;95082.03;;;30.74;31.20
77288;BME280;66345;42.694;23.346;2023-07-31T11:26:38;95091.69;;;30.62;31.57
77288;BME280;66345;42.694;23.346;2023-07-31T11:29:11;95093.00;;;30.56;30.66
77288;BME280;66345;42.694;23.346;2023-07-31T11:31:42;95079.00;;;29.97;31.01
77288;BME280;66345;42.694;23.346;2023-07-31T11:34:10;95085.59;;;29.96;31.31
77288;BME280;66345;42.694;23.346;2023-07-31T11:36:57;95084.66;;;30.27;31.18
77288;BME280;66345;42.694;23.346;2023-07-31T11:39:24;95080.13;;;30.48;30.48
77288;BME280;66345;42.694;23.346;2023-07-31T11:41:49;95094.34;;;30.24;30.38
77288;BME280;66345;42.694;23.346;2023-07-31T11:44:19;95081.09;;;29.83;32.17
77288;BME280;66345;42.694;23.346;2023-07-31T11:46:50;95094.78;;;29.26;33.29
77288;BME280;66345;42.694;23.346;2023-07-31T11:49:16;95081.69;;;29.54;33.29
77288;BME280;66345;42.694;23.346;2023-07-31T11:51:52;95085.09;;;29.68;32.58
77288;BME280;66345;42.694;23.346;2023-07-31T11:54:18;95084.47;;;29.89;32.23
77288;BME280;66345;42.694;23.346;2023-07-31T11:56:44;95090.06;;;29.58;32.64
77288;BME280;66345;42.694;23.346;2023-07-31T11:59:10;95075.38;;;29.45;32.65
77288;BME280;66345;42.694;23.346;2023-07-31T12:01:37;95078.31;;;29.57;32.84
77288;BME280;66345;42.694;23.346;2023-07-31T12:04:03;95076.63;;;29.30;33.18
77288;BME280;66345;42.694;23.346;2023-07-31T12:06:33;95078.72;;;28.93;33.91
77288;BME280;66345;42.694;23.346;2023-07-31T12:09:05;95073.66;;;29.09;33.21
77288;BME280;66345;42.694;23.346;2023-07-31T12:11:45;95069.00;;;29.10;33.77
77288;BME280;66345;42.694;23.346;2023-07-31T12:14:28;95058.13;;;29.27;33.90
77288;BME280;66345;42.694;23.346;2023-07-31T12:16:59;95066.09;;;29.06;33.63
77288;BME280;66345;42.694;23.346;2023-07-31T12:19:25;95062.41;;;29.11;34.31
77288;BME280;66345;42.694;23.346;2023-07-31T12:21:55;95066.13;;;29.15;33.11
77288;BME280;66345;42.694;23.346;2023-07-31T12:24:25;95058.34;;;28.99;34.73
77288;BME280;66345;42.694;23.346;2023-07-31T12:26:51;95066.22;;;29.01;34.03
77288;BME280;66345;42.694;23.346;2023-07-31T12:29:17;95042.69;;;29.31;33.69
77288;BME280;66345;42.694;23.346;2023-07-31T12:31:43;95057.25;;;29.75;32.50
77288;BME280;66345;42.694;23.346;2023-07-31T12:34:21;95062.72;;;29.58;32.91
77288;BME280;66345;42.694;23.346;2023-07-31T12:36:47;95053.72;;;29.74;32.17
77288;BME280;66345;42.694;23.346;2023-07-31T12:39:14;95059.19;;;29.74;33.22
77288;BME280;66345;42.694;23.346;2023-07-31T12:41:40;95047.91;;;29.59;33.02
77288;BME280;66345;42.694;23.346;2023-07-31T12:44:05;95041.81;;;29.79;31.98
77288;BME280;66345;42.694;23.346;2023-07-31T12:46:31;95036.84;;;29.81;32.02
77288;BME280;66345;42.694;23.346;2023-07-31T12:48:56;95042.63;;;29.88;32.56
77288;BME280;66345;42.694;23.346;2023-07-31T12:51:22;95026.53;;;29.87;32.33
77288;BME280;66345;42.694;23.346;2023-07-31T12:53:47;95039.38;;;29.69;32.69
77288;BME280;66345;42.694;23.346;2023-07-31T12:56:13;95036.84;;;29.07;33.88
77288;BME280;66345;42.694;23.346;2023-07-31T12:58:38;95030.88;;;28.96;34.22
77288;BME280;66345;42.694;23.346;2023-07-31T13:01:04;95027.25;;;29.18;34.49
77288;BME280;66345;42.694;23.346;2023-07-31T13:03:31;95021.94;;;29.21;33.87